createdAt,value
2023-01-27T00:01:47.666Z,64.30
2023-01-27T00:04:15.904Z,52.10
2023-01-27T00:06:44.357Z,54.75
2023-01-27T00:09:13.536Z,43.00
2023-01-27T00:12:00.153Z,47.05
2023-01-27T00:14:29.894Z,45.45
2023-01-27T00:16:58.601Z,41.72
2023-01-27T00:19:27.458Z,43.72
2023-01-27T00:22:15.710Z,40.00
2023-01-27T00:24:44.267Z,44.05
2023-01-27T00:27:12.696Z,55.35
2023-01-27T00:29:42.576Z,55.88
2023-01-27T00:32:29.193Z,77.63
2023-01-27T00:34:58.786Z,95.30
2023-01-27T00:37:27.468Z,147.55
2023-01-27T00:39:55.794Z,120.00
2023-01-27T00:42:24.283Z,101.32
2023-01-27T00:45:12.732Z,95.90
2023-01-27T00:47:41.059Z,77.30
2023-01-27T00:50:10.743Z,62.88
2023-01-27T00:52:39.531Z,59.92
2023-01-27T00:55:08.980Z,52.40
2023-01-27T00:57:37.634Z,40.95
2023-01-27T01:00:12.161Z,45.15
2023-01-27T01:02:40.785Z,42.97
2023-01-27T01:05:10.140Z,41.60
2023-01-27T01:07:38.655Z,39.50
2023-01-27T01:10:10.846Z,50.90
2023-01-27T01:12:39.460Z,38.10
2023-01-27T01:15:10.190Z,44.83
2023-01-27T01:17:38.393Z,36.70
2023-01-27T01:20:07.861Z,39.53
2023-01-27T01:22:36.305Z,39.00
2023-01-27T01:25:05.310Z,36.00
2023-01-27T01:27:33.519Z,38.58
2023-01-27T01:30:02.205Z,35.15
2023-01-27T01:32:32.040Z,38.85
2023-01-27T01:35:00.713Z,37.10
2023-01-27T01:37:29.096Z,33.38
2023-01-27T01:39:57.399Z,34.47
2023-01-27T01:42:26.319Z,41.35
2023-01-27T01:45:40.071Z,37.15
2023-01-27T01:48:15.155Z,36.00
2023-01-27T01:50:49.753Z,41.17
2023-01-27T01:53:18.978Z,44.17
2023-01-27T01:55:49.170Z,37.95
2023-01-27T01:58:21.137Z,40.22
2023-01-27T02:00:49.568Z,39.90
2023-01-27T02:03:20.901Z,44.75
2023-01-27T02:05:49.297Z,37.88
2023-01-27T02:08:22.863Z,39.60
2023-01-27T02:10:52.632Z,40.80
2023-01-27T02:13:21.258Z,35.70
2023-01-27T02:15:51.631Z,35.55
2023-01-27T02:18:22.323Z,38.05
2023-01-27T02:20:53.223Z,40.00
2023-01-27T02:23:37.213Z,35.50
2023-01-27T02:26:12.583Z,40.67
2023-01-27T02:28:41.327Z,35.25
2023-01-27T02:31:10.419Z,36.60
2023-01-27T02:33:38.827Z,37.55
2023-01-27T02:36:10.684Z,40.65
2023-01-27T02:38:45.174Z,36.08
2023-01-27T02:41:20.043Z,37.60
2023-01-27T02:43:49.432Z,35.33
2023-01-27T02:46:17.906Z,34.38
2023-01-27T02:48:46.595Z,37.60
2023-01-27T02:51:15.020Z,31.40
2023-01-27T02:53:45.638Z,33.72
2023-01-27T02:56:15.363Z,32.22
2023-01-27T02:58:44.741Z,32.07
2023-01-27T03:01:19.596Z,37.45
2023-01-27T03:03:48.236Z,36.47
2023-01-27T03:06:21.435Z,37.22
2023-01-27T03:08:49.659Z,37.70
2023-01-27T03:11:40.013Z,32.95
2023-01-27T03:14:09.447Z,35.78
2023-01-27T03:16:55.750Z,40.53
2023-01-27T03:19:24.049Z,35.42
2023-01-27T03:21:54.119Z,38.38
2023-01-27T03:24:24.118Z,40.10
2023-01-27T03:26:57.587Z,34.17
2023-01-27T03:30:00.045Z,43.78
2023-01-27T03:32:30.366Z,47.17
2023-01-27T03:35:18.877Z,35.55
2023-01-27T03:38:08.304Z,39.20
2023-01-27T03:40:54.293Z,34.65
2023-01-27T03:43:41.468Z,37.30
2023-01-27T03:46:18.513Z,35.78
2023-01-27T03:48:51.344Z,41.83
2023-01-27T03:51:20.836Z,35.85
2023-01-27T03:53:49.440Z,39.90
2023-01-27T03:56:19.241Z,37.47
2023-01-27T03:58:50.632Z,36.65
2023-01-27T04:01:21.693Z,39.50
2023-01-27T04:06:53.652Z,35.40
2023-01-27T04:09:23.806Z,37.10
2023-01-27T04:11:59.950Z,34.33
2023-01-27T04:14:32.071Z,34.42
2023-01-27T04:17:02.502Z,35.60
2023-01-27T04:19:31.483Z,34.35
2023-01-27T04:22:01.744Z,38.47
2023-01-27T04:24:30.473Z,37.88
2023-01-27T04:27:00.936Z,35.80
2023-01-27T04:29:32.965Z,36.83
2023-01-27T04:32:01.148Z,35.22
2023-01-27T04:34:30.384Z,36.67
2023-01-27T04:36:59.149Z,38.38
2023-01-27T04:39:28.439Z,34.30
2023-01-27T04:41:57.296Z,38.67
2023-01-27T04:44:25.804Z,42.58
2023-01-27T04:46:55.583Z,39.25
2023-01-27T04:49:26.919Z,32.55
2023-01-27T04:51:55.557Z,33.88
2023-01-27T04:54:23.929Z,37.90
2023-01-27T04:56:57.643Z,33.00
2023-01-27T04:59:26.581Z,35.72
2023-01-27T05:01:56.380Z,34.97
2023-01-27T05:04:26.547Z,35.90
2023-01-27T05:06:55.133Z,41.05
2023-01-27T05:09:23.426Z,41.38
2023-01-27T05:11:51.825Z,31.33
2023-01-27T05:14:20.231Z,40.60
2023-01-27T05:16:48.599Z,35.45
2023-01-27T05:19:19.018Z,39.70
2023-01-27T05:21:47.377Z,35.35
2023-01-27T05:24:16.085Z,34.88
2023-01-27T05:26:44.456Z,36.97
2023-01-27T05:29:12.740Z,32.30
2023-01-27T05:31:41.145Z,31.00
2023-01-27T05:34:09.989Z,34.00
2023-01-27T05:36:39.701Z,39.83
2023-01-27T05:39:09.154Z,38.70
2023-01-27T05:41:37.650Z,35.65
2023-01-27T05:44:07.670Z,35.75
2023-01-27T05:46:40.663Z,36.53
2023-01-27T05:49:09.600Z,35.53
2023-01-27T05:51:41.157Z,39.50
2023-01-27T05:54:10.745Z,37.65
2023-01-27T05:56:39.402Z,34.70
2023-01-27T05:59:08.315Z,34.33
2023-01-27T06:01:37.632Z,33.38
2023-01-27T06:04:07.273Z,36.40
2023-01-27T06:06:35.842Z,33.80
2023-01-27T06:09:05.993Z,37.53
2023-01-27T06:11:34.458Z,37.22
2023-01-27T06:14:03.182Z,37.22
2023-01-27T06:16:32.221Z,37.53
2023-01-27T06:19:00.854Z,40.05
2023-01-27T06:21:29.157Z,39.10
2023-01-27T06:23:58.408Z,35.40
2023-01-27T06:26:28.167Z,37.85
2023-01-27T06:28:58.334Z,38.38
2023-01-27T06:31:27.643Z,37.05
2023-01-27T06:33:56.187Z,32.65
2023-01-27T06:36:24.705Z,38.35
2023-01-27T06:38:53.674Z,36.03
2023-01-27T06:41:21.839Z,32.22
2023-01-27T06:43:51.798Z,41.88
2023-01-27T06:46:20.125Z,38.88
2023-01-27T06:48:48.492Z,31.70
2023-01-27T06:51:17.456Z,35.58
2023-01-27T06:53:45.850Z,37.13
2023-01-27T06:56:16.383Z,42.10
2023-01-27T06:58:45.622Z,34.25
2023-01-27T07:01:15.539Z,37.92
2023-01-27T07:03:45.148Z,40.75
2023-01-27T07:06:15.263Z,39.13
2023-01-27T07:08:46.557Z,38.35
2023-01-27T07:11:14.850Z,38.47
2023-01-27T07:13:43.532Z,41.42
2023-01-27T07:16:11.992Z,42.33
2023-01-27T07:18:41.947Z,37.78
2023-01-27T07:21:10.450Z,41.22
2023-01-27T07:23:38.839Z,41.58
2023-01-27T07:26:19.230Z,37.10
2023-01-27T07:28:52.464Z,38.50
2023-01-27T07:31:21.086Z,40.85
2023-01-27T07:33:50.987Z,38.58
2023-01-27T07:36:19.728Z,40.22
2023-01-27T07:38:50.604Z,37.45
2023-01-27T07:41:23.152Z,40.83
2023-01-27T07:43:52.456Z,41.28
2023-01-27T07:46:21.280Z,36.63
2023-01-27T07:48:51.091Z,39.05
2023-01-27T07:51:20.193Z,36.87
2023-01-27T07:53:48.510Z,41.85
2023-01-27T07:56:16.881Z,34.72
2023-01-27T07:58:45.304Z,41.60
2023-01-27T08:01:15.029Z,39.45
2023-01-27T08:03:43.547Z,39.17
2023-01-27T08:06:14.127Z,40.08
2023-01-27T08:08:42.745Z,36.42
2023-01-27T08:11:15.382Z,33.85
2023-01-27T08:13:44.035Z,33.75
2023-01-27T08:16:15.089Z,37.55
2023-01-27T08:18:43.866Z,30.10
2023-01-27T08:21:14.713Z,40.38
2023-01-27T08:23:43.458Z,23.40
2023-01-27T08:26:11.790Z,34.22
2023-01-27T08:28:41.745Z,42.88
2023-01-27T08:31:13.183Z,34.42
2023-01-27T08:33:43.391Z,39.70
2023-01-27T08:36:15.293Z,32.05
2023-01-27T08:38:44.966Z,37.03
2023-01-27T08:41:15.031Z,40.40
2023-01-27T08:43:44.769Z,32.72
2023-01-27T08:46:14.252Z,36.92
2023-01-27T08:48:43.123Z,33.38
2023-01-27T08:51:15.521Z,34.13
2023-01-27T08:53:44.065Z,35.00
2023-01-27T08:56:14.113Z,36.67
2023-01-27T08:58:42.810Z,38.90
2023-01-27T09:01:11.618Z,41.60
2023-01-27T09:03:40.364Z,39.63
2023-01-27T09:06:10.617Z,51.72
2023-01-27T09:08:40.984Z,43.05
2023-01-27T09:11:11.166Z,32.75
2023-01-27T09:13:39.528Z,40.17
2023-01-27T09:16:08.620Z,35.72
2023-01-27T09:18:37.098Z,37.95
2023-01-27T09:21:06.333Z,35.75
2023-01-27T09:23:35.531Z,39.90
2023-01-27T09:26:05.304Z,35.47
2023-01-27T09:28:33.752Z,35.95
2023-01-27T09:31:02.433Z,38.85
2023-01-27T09:33:30.784Z,33.60
2023-01-27T09:36:05.486Z,34.63
2023-01-27T09:38:45.181Z,39.03
2023-01-27T09:41:30.596Z,35.22
2023-01-27T09:44:14.894Z,41.17
2023-01-27T09:47:02.260Z,42.08
2023-01-27T09:49:45.182Z,36.33
2023-01-27T09:52:47.545Z,37.47
2023-01-27T09:55:23.292Z,37.10
2023-01-27T09:58:00.561Z,37.22
2023-01-27T10:00:43.187Z,35.35
2023-01-27T10:03:47.870Z,36.83
2023-01-27T10:06:34.977Z,42.85
2023-01-27T10:09:35.773Z,34.28
2023-01-27T10:12:18.059Z,36.50
2023-01-27T10:17:38.214Z,30.52
2023-01-27T10:20:20.475Z,30.05
2023-01-27T10:23:02.258Z,31.52
2023-01-27T10:28:13.440Z,33.83
2023-01-27T10:30:52.469Z,31.50
2023-01-27T10:33:22.104Z,34.30
2023-01-27T10:35:54.243Z,31.30
2023-01-27T10:38:35.020Z,31.77
2023-01-27T10:41:13.699Z,33.50
2023-01-27T10:43:58.115Z,36.63
2023-01-27T10:46:42.043Z,36.30
2023-01-27T10:49:23.123Z,34.35
2023-01-27T10:51:56.099Z,34.47
2023-01-27T10:54:33.152Z,31.63
2023-01-27T10:57:07.383Z,33.70
2023-01-27T10:59:41.724Z,33.03
2023-01-27T11:02:24.425Z,32.17
2023-01-27T11:04:58.549Z,32.38
2023-01-27T11:07:27.391Z,27.90
2023-01-27T11:09:58.185Z,30.48
2023-01-27T11:12:31.910Z,32.63
2023-01-27T11:15:02.660Z,33.03
2023-01-27T11:17:38.373Z,32.45
2023-01-27T11:20:13.771Z,33.30
2023-01-27T11:22:52.308Z,31.63
2023-01-27T11:25:27.634Z,29.58
2023-01-27T11:28:05.283Z,30.17
2023-01-27T11:30:39.621Z,29.77
2023-01-27T11:33:19.890Z,31.35
2023-01-27T11:35:48.982Z,29.48
2023-01-27T11:38:20.789Z,29.90
2023-01-27T11:40:51.364Z,29.85
2023-01-27T11:43:22.474Z,32.30
2023-01-27T11:45:53.956Z,28.88
2023-01-27T11:48:24.033Z,27.15
2023-01-27T11:50:52.341Z,30.52
2023-01-27T11:53:28.366Z,23.42
2023-01-27T11:56:01.724Z,26.30
2023-01-27T11:58:35.487Z,25.27
2023-01-27T12:01:07.212Z,23.20
2023-01-27T12:03:54.306Z,25.48
2023-01-27T12:06:36.585Z,28.35
2023-01-27T12:09:05.332Z,24.90
2023-01-27T12:11:34.177Z,23.75
2023-01-27T12:14:05.517Z,24.85
2023-01-27T12:16:46.170Z,22.58
2023-01-27T12:19:25.936Z,21.95
2023-01-27T12:21:59.212Z,23.50
2023-01-27T12:24:32.066Z,27.73
2023-01-27T12:27:01.824Z,27.40
2023-01-27T12:29:39.481Z,30.15
2023-01-27T12:32:17.382Z,26.48
2023-01-27T12:34:51.018Z,30.85
2023-01-27T12:37:26.541Z,25.10
2023-01-27T12:40:00.465Z,29.63
2023-01-27T12:42:37.372Z,25.70
2023-01-27T12:45:24.767Z,28.52
2023-01-27T12:48:17.876Z,25.48
2023-01-27T12:53:28.235Z,23.48
2023-01-27T12:56:00.956Z,26.02
2023-01-27T12:58:36.376Z,28.17
2023-01-27T13:01:07.631Z,26.08
2023-01-27T13:03:41.832Z,24.95
2023-01-27T13:06:16.990Z,29.02
2023-01-27T13:08:47.079Z,27.20
2023-01-27T13:11:30.957Z,28.15
2023-01-27T13:13:59.635Z,23.88
2023-01-27T13:16:30.371Z,28.10
2023-01-27T13:19:01.585Z,28.55
2023-01-27T13:21:37.279Z,34.08
2023-01-27T13:24:12.375Z,38.28
2023-01-27T13:26:42.333Z,36.08
2023-01-27T13:29:16.763Z,30.25
2023-01-27T13:31:52.070Z,27.35
2023-01-27T13:34:27.415Z,28.75
2023-01-27T13:37:02.728Z,26.50
2023-01-27T13:39:50.592Z,25.10
2023-01-27T13:42:24.847Z,27.63
2023-01-27T13:45:00.534Z,26.63
2023-01-27T13:47:35.150Z,27.38
2023-01-27T13:50:09.905Z,25.23
2023-01-27T13:52:39.759Z,26.70
2023-01-27T13:55:14.040Z,27.40
2023-01-27T13:58:06.883Z,23.65
2023-01-27T14:00:42.975Z,30.02
2023-01-27T14:03:57.816Z,28.70
2023-01-27T14:06:38.720Z,28.83
2023-01-27T14:09:20.602Z,30.02
2023-01-27T14:11:56.501Z,29.92
2023-01-27T14:14:58.102Z,27.10
2023-01-27T14:17:38.463Z,29.27
2023-01-27T14:20:34.581Z,27.63
2023-01-27T14:23:15.537Z,26.05
2023-01-27T14:25:56.981Z,26.95
2023-01-27T14:28:33.630Z,24.27
2023-01-27T14:31:08.098Z,28.58
2023-01-27T14:33:50.560Z,27.23
2023-01-27T14:36:22.997Z,27.58
2023-01-27T14:39:03.879Z,25.98
2023-01-27T14:41:41.314Z,27.57
2023-01-27T14:44:21.162Z,28.42
2023-01-27T14:47:02.008Z,26.25
2023-01-27T14:49:47.681Z,27.35
2023-01-27T14:52:27.600Z,25.63
2023-01-27T14:55:17.004Z,26.33
2023-01-27T14:57:56.895Z,24.42
2023-01-27T15:00:43.724Z,29.88
2023-01-27T15:03:45.256Z,26.15
2023-01-27T15:06:20.087Z,26.98
2023-01-27T15:08:57.259Z,27.08
2023-01-27T15:11:51.663Z,22.60
2023-01-27T15:14:43.544Z,24.92
2023-01-27T15:17:28.173Z,26.33
2023-01-27T15:20:15.176Z,27.02
2023-01-27T15:22:56.204Z,27.48
2023-01-27T15:25:36.358Z,27.00
2023-01-27T15:28:06.178Z,27.42
2023-01-27T15:30:38.645Z,29.35
2023-01-27T15:33:40.765Z,28.05
2023-01-27T15:39:01.146Z,143.88
2023-01-27T15:41:29.912Z,124.63
2023-01-27T15:44:15.523Z,75.78
2023-01-27T15:46:47.486Z,60.65
2023-01-27T15:49:20.730Z,44.28
2023-01-27T15:51:51.496Z,35.17
2023-01-27T15:54:25.721Z,37.47
2023-01-27T15:56:55.759Z,37.17
2023-01-27T15:59:28.020Z,37.78
2023-01-27T16:02:14.368Z,36.75
2023-01-27T16:04:43.605Z,51.42
2023-01-27T16:07:23.877Z,52.45
2023-01-27T16:09:53.545Z,43.60
2023-01-27T16:12:38.976Z,50.05
2023-01-27T16:15:35.290Z,51.25
2023-01-27T16:18:28.423Z,70.43
2023-01-27T16:21:03.324Z,50.13
2023-01-27T16:23:46.228Z,62.83
2023-01-27T16:26:30.489Z,71.25
2023-01-27T16:29:25.794Z,111.80
2023-01-27T16:31:59.837Z,62.15
2023-01-27T16:34:36.209Z,49.70
2023-01-27T16:37:18.582Z,41.88
2023-01-27T16:39:51.554Z,37.80
2023-01-27T16:42:22.687Z,40.75
2023-01-27T16:44:54.712Z,40.90
2023-01-27T16:47:27.981Z,37.50
2023-01-27T16:49:59.883Z,38.70
2023-01-27T16:52:41.765Z,37.20
2023-01-27T16:55:22.466Z,43.78
2023-01-27T16:57:51.970Z,39.15
2023-01-27T17:00:23.543Z,39.20
2023-01-27T17:02:54.196Z,35.92
2023-01-27T17:05:24.453Z,34.65
2023-01-27T17:08:17.071Z,37.00
2023-01-27T17:10:50.326Z,31.42
2023-01-27T17:13:32.916Z,29.85
2023-01-27T17:16:04.776Z,33.75
2023-01-27T17:18:50.896Z,35.63
2023-01-27T17:21:38.953Z,34.00
2023-01-27T17:24:22.614Z,39.47
2023-01-27T17:26:59.788Z,32.60
2023-01-27T17:29:35.544Z,35.17
2023-01-27T17:32:05.631Z,37.33
2023-01-27T17:34:34.544Z,39.30
2023-01-27T17:37:08.783Z,44.47
2023-01-27T17:39:39.317Z,41.70
2023-01-27T17:42:08.210Z,40.13
2023-01-27T17:44:36.774Z,38.53
2023-01-27T17:47:07.725Z,45.60
2023-01-27T17:49:36.297Z,40.33
2023-01-27T17:52:11.106Z,36.60
2023-01-27T17:54:41.644Z,42.53
2023-01-27T17:57:20.242Z,41.38
2023-01-27T17:59:58.736Z,42.45
2023-01-27T18:02:30.225Z,46.67
2023-01-27T18:05:02.789Z,39.63
2023-01-27T18:07:34.228Z,45.63
2023-01-27T18:10:02.638Z,44.30
2023-01-27T18:12:35.777Z,47.22
2023-01-27T18:15:42.771Z,43.67
2023-01-27T18:18:23.655Z,41.10
2023-01-27T18:21:04.250Z,39.67
2023-01-27T18:23:36.898Z,41.17
2023-01-27T18:26:14.551Z,40.10
2023-01-27T18:28:44.825Z,49.90
2023-01-27T18:31:18.864Z,50.72
2023-01-27T18:33:55.927Z,48.15
2023-01-27T18:36:29.400Z,74.05
2023-01-27T18:38:59.041Z,40.58
2023-01-27T18:41:32.034Z,36.28
2023-01-27T18:44:01.769Z,38.45
2023-01-27T18:46:30.476Z,38.78
2023-01-27T18:49:01.104Z,37.03
2023-01-27T18:51:29.582Z,37.88
2023-01-27T18:53:59.489Z,37.50
2023-01-27T18:56:28.431Z,33.00
2023-01-27T18:58:56.951Z,37.28
2023-01-27T19:01:26.054Z,29.48
2023-01-27T19:03:57.576Z,31.55
2023-01-27T19:06:27.005Z,29.10
2023-01-27T19:08:55.406Z,38.22
2023-01-27T19:11:28.815Z,31.15
2023-01-27T19:14:00.000Z,33.80
2023-01-27T19:16:28.733Z,34.75
2023-01-27T19:18:57.038Z,31.85
2023-01-27T19:21:25.473Z,30.08
2023-01-27T19:23:53.868Z,28.80
2023-01-27T19:26:26.301Z,25.70
2023-01-27T19:28:57.725Z,27.60
2023-01-27T19:31:26.642Z,30.77
2023-01-27T19:33:56.785Z,23.92
2023-01-27T19:36:31.349Z,28.98
2023-01-27T19:39:12.718Z,27.15
2023-01-27T19:41:43.188Z,24.80
2023-01-27T19:44:11.475Z,24.80
2023-01-27T19:46:40.591Z,23.10
2023-01-27T19:49:15.815Z,23.25
2023-01-27T19:51:44.806Z,23.85
2023-01-27T19:54:13.563Z,22.13
2023-01-27T19:56:44.698Z,23.63
2023-01-27T19:59:13.965Z,26.33
2023-01-27T20:01:42.339Z,26.10
2023-01-27T20:04:12.095Z,27.88
2023-01-27T20:06:40.723Z,24.85
2023-01-27T20:09:11.064Z,28.05
2023-01-27T20:11:41.393Z,29.42
2023-01-27T20:14:14.110Z,25.92
2023-01-27T20:16:43.680Z,26.05
2023-01-27T20:19:15.130Z,26.98
2023-01-27T20:21:43.958Z,30.27
2023-01-27T20:24:15.682Z,28.75
2023-01-27T20:26:44.131Z,27.08
2023-01-27T20:29:14.216Z,217.32
2023-01-27T20:31:42.697Z,91.72
2023-01-27T20:34:11.466Z,29.73
2023-01-27T20:36:40.106Z,25.45
2023-01-27T20:39:08.766Z,19.95
2023-01-27T20:41:37.171Z,20.23
2023-01-27T20:44:05.629Z,17.00
2023-01-27T20:46:35.507Z,15.40
2023-01-27T20:49:03.882Z,18.10
2023-01-27T20:51:32.416Z,24.27
2023-01-27T20:54:01.473Z,17.58
2023-01-27T20:56:29.834Z,20.33
2023-01-27T20:58:58.825Z,19.92
2023-01-27T21:01:27.775Z,17.85
2023-01-27T21:03:58.587Z,24.48
2023-01-27T21:08:56.395Z,29.02
2023-01-27T21:11:25.472Z,29.60
2023-01-27T21:13:54.043Z,31.00
2023-01-27T21:16:22.679Z,28.45
2023-01-27T21:18:51.614Z,27.92
2023-01-27T21:21:27.368Z,30.33
2023-01-27T21:23:56.384Z,31.08
2023-01-27T21:26:26.080Z,28.67
2023-01-27T21:28:54.558Z,31.40
2023-01-27T21:31:24.421Z,26.38
2023-01-27T21:33:52.988Z,28.52
2023-01-27T21:36:21.249Z,30.58
2023-01-27T21:38:53.857Z,30.98
2023-01-27T21:41:38.347Z,28.00
2023-01-27T21:44:30.656Z,34.55
2023-01-27T21:46:59.848Z,27.00
2023-01-27T21:49:28.430Z,34.22
2023-01-27T21:51:56.751Z,24.27
2023-01-27T21:54:26.834Z,23.40
2023-01-27T21:56:55.315Z,24.45
2023-01-27T21:59:24.241Z,30.45
2023-01-27T22:01:55.342Z,28.48
2023-01-27T22:04:23.775Z,35.20
2023-01-27T22:06:52.098Z,30.85
2023-01-27T22:09:20.535Z,39.85
2023-01-27T22:11:50.185Z,37.20
2023-01-27T22:14:18.640Z,47.20
2023-01-27T22:16:47.395Z,46.55
2023-01-27T22:19:15.807Z,39.53
2023-01-27T22:21:44.335Z,43.22
2023-01-27T22:24:12.878Z,43.40
2023-01-27T22:26:41.236Z,41.50
2023-01-27T22:29:11.883Z,54.78
2023-01-27T22:31:42.049Z,41.67
2023-01-27T22:34:10.834Z,34.47
2023-01-27T22:36:39.187Z,30.42
2023-01-27T22:39:07.559Z,28.25
2023-01-27T22:41:36.224Z,25.80
2023-01-27T22:44:04.679Z,24.95
2023-01-27T22:46:34.733Z,26.23
2023-01-27T22:49:03.257Z,34.08
2023-01-27T22:51:32.236Z,26.00
2023-01-27T22:54:00.538Z,30.80
2023-01-27T22:56:29.450Z,31.98
2023-01-27T22:58:57.771Z,28.80
2023-01-27T23:01:26.446Z,28.50
2023-01-27T23:03:56.721Z,26.95
2023-01-27T23:06:25.790Z,26.17
2023-01-27T23:08:54.159Z,29.73
2023-01-27T23:11:22.463Z,28.38
2023-01-27T23:13:50.815Z,25.67
2023-01-27T23:16:19.270Z,28.42
2023-01-27T23:18:47.665Z,23.58
2023-01-27T23:21:17.601Z,26.05
2023-01-27T23:23:45.988Z,26.80
2023-01-27T23:26:14.763Z,22.98
2023-01-27T23:28:43.503Z,25.83
2023-01-27T23:31:12.894Z,27.17
2023-01-27T23:33:43.256Z,31.17
2023-01-27T23:36:12.900Z,28.63
2023-01-27T23:38:43.055Z,26.85
2023-01-27T23:41:18.396Z,29.02
2023-01-27T23:43:51.324Z,25.85
2023-01-27T23:46:20.197Z,25.35
2023-01-27T23:48:51.429Z,27.10
2023-01-27T23:51:20.444Z,29.73
2023-01-27T23:53:51.321Z,26.17
2023-01-27T23:56:21.789Z,23.15
2023-01-27T23:58:50.067Z,25.30
